PKMJ Airport Information

Runway Information
Runway 07 Length 7897 ft width 150 ft
Elevation 6 ft Threshold 0 ft Heading 76
Runway 25 Length 7897 ft Width 150 ft
Elevation 6 ft Threshold 0 ft Heading 256
Airport Frequencies
Type CTAF Name CTAF Frequency 123.6 MHZ
Type RDO Name MAJURO RDO Frequency 123.6 MHZ
Airport Navaids
Type NDB-DME Name Majuro Frequency 316 KHZ
Airport Weather Information & NOTAM
ADDS - METARS form results

(1907 UTC 25 February 2021)
Data provider http://aviationweather.gov/metar/data/
 
Forecast for: PKMJ (MAJURO WSO AIRPO, MH, US)
Text: PKMJ 251732Z 2518/2618 07013KT P6SM VCSH FEW020 SCT050
Forecast period: 1800 UTC 25 February 2021 to 1800 UTC 26 February 2021
Forecast type: FROM: standard forecast or significant change
Winds: from the ENE (70 degrees) at 15 MPH (13 knots; 6.7 m/s)
Visibility: 6 or more miles (10+ km)
Ceiling: at least 12,000 feet AGL
Clouds: few clouds at 2000 feet AGL
scattered clouds at 5000 feet AGL
Weather: VCSH  (showers in vicinity)